Time;durP1;ratioP1;P1;durP2;ratioP2;P2;SDS_P1;SDS_P2;PMS_P1;PMS_P2;Temp;Humidity;BMP_temperature;BMP_pressure;BME280_temperature;BME280_humidity;BME280_pressure;Samples;Min_cycle;Max_cycle;Signal;HPM_P1;HPM_P2
2021/06/23 00:01:09;;;;;;;29.67;13.98;;;;;;;19.56;73.75;96975.83;1788039;80;27440;-87
2021/06/23 00:03:36;;;;;;;18.98;12.40;;;;;;;19.60;73.76;96970.07;1784848;80;25229;-87
2021/06/23 00:06:03;;;;;;;17.07;11.48;;;;;;;19.65;73.80;96976.09;1776478;80;25633;-87
2021/06/23 00:08:29;;;;;;;20.30;11.38;;;;;;;19.63;73.85;96981.02;1778497;80;25735;-87
2021/06/23 00:10:56;;;;;;;20.08;12.15;;;;;;;19.64;73.91;96979.38;1786354;79;25805;-86
2021/06/23 00:13:22;;;;;;;23.90;11.65;;;;;;;19.67;73.85;96984.30;1785205;80;27462;-88
2021/06/23 00:15:49;;;;;;;20.20;11.40;;;;;;;19.72;73.84;96980.16;1785922;80;25667;-86
2021/06/23 00:18:16;;;;;;;21.62;12.65;;;;;;;19.75;73.87;96973.30;1773175;80;25742;-86
2021/06/23 00:20:42;;;;;;;23.85;12.75;;;;;;;19.74;73.93;96975.22;1760373;80;26401;-87
2021/06/23 00:23:09;;;;;;;20.27;12.78;;;;;;;19.68;73.99;96979.64;1768490;80;25777;-87
2021/06/23 00:25:36;;;;;;;22.60;12.55;;;;;;;19.62;74.10;96984.85;1788613;80;27383;-88
2021/06/23 00:28:03;;;;;;;21.60;12.78;;;;;;;19.57;74.22;96988.41;1786612;80;25708;-87
2021/06/23 00:30:29;;;;;;;21.77;12.73;;;;;;;19.60;74.43;96993.34;1771826;80;25802;-87
2021/06/23 00:33:00;;;;;;;25.05;12.80;;;;;;;19.65;74.36;96994.70;1783255;80;26731;-87
2021/06/23 00:35:27;;;;;;;17.67;11.78;;;;;;;19.72;74.37;97004.80;1786457;80;25743;-88
2021/06/23 00:37:53;;;;;;;21.30;11.80;;;;;;;19.70;74.43;97001.52;1785337;79;27388;-88
2021/06/23 00:40:20;;;;;;;19.55;11.43;;;;;;;19.68;74.45;97003.70;1783516;80;25767;-87
2021/06/23 00:42:47;;;;;;;22.75;12.30;;;;;;;19.69;74.59;97010.83;1787692;80;25734;-87
2021/06/23 00:45:15;;;;;;;20.57;12.07;;;;;;;19.72;74.62;97016.30;1787477;80;25748;-88
2021/06/23 00:47:45;;;;;;;20.45;11.80;;;;;;;19.75;74.67;97020.68;1773937;80;25780;-88
2021/06/23 00:50:16;;;;;;;21.80;11.33;;;;;;;19.80;74.63;97027.25;1781946;80;27385;-87
2021/06/23 00:52:43;;;;;;;23.20;12.33;;;;;;;19.84;74.71;97025.57;1788836;80;25854;-87
2021/06/23 00:55:20;;;;;;;20.02;12.45;;;;;;;19.85;74.69;97030.77;1787633;80;25692;-87
2021/06/23 00:57:41;;;;;;;21.15;11.90;;;;;;;19.85;74.66;97040.91;1775021;80;26545;-87
2021/06/23 01:00:08;;;;;;;21.48;13.25;;;;;;;19.81;74.54;97040.64;1778592;80;25653;-87
2021/06/23 01:02:35;;;;;;;20.85;12.90;;;;;;;19.83;74.63;97044.47;1767125;80;27505;-87
2021/06/23 01:05:02;;;;;;;19.62;13.13;;;;;;;19.81;74.57;97038.44;1788939;80;26567;-85
2021/06/23 01:07:29;;;;;;;20.75;12.53;;;;;;;19.81;74.59;97041.19;1781486;80;25755;-87
2021/06/23 01:09:57;;;;;;;20.40;12.58;;;;;;;19.80;74.66;97037.66;1773596;80;25780;-87
2021/06/23 01:12:31;;;;;;;19.15;12.53;;;;;;;19.77;74.71;97037.66;1767050;80;25738;-87
2021/06/23 01:14:59;;;;;;;22.17;14.00;;;;;;;19.77;74.80;97045.05;1785718;80;27215;-85
2021/06/23 01:17:36;;;;;;;21.85;13.83;;;;;;;19.80;75.00;97040.94;1787481;80;26420;-87
2021/06/23 01:20:08;;;;;;;19.60;13.20;;;;;;;19.78;75.04;97040.67;1773558;80;25257;-90
2021/06/23 01:22:42;;;;;;;22.77;13.62;;;;;;;19.80;74.94;97048.61;1782961;80;26464;-86
2021/06/23 01:25:13;;;;;;;20.85;12.75;;;;;;;19.80;74.94;97048.61;1787589;80;25780;-86
2021/06/23 01:27:41;;;;;;;18.40;13.03;;;;;;;19.81;75.30;97046.66;1767069;80;28246;-87
2021/06/23 01:30:10;;;;;;;19.98;14.10;;;;;;;19.84;75.51;97049.67;1787479;80;25783;-86
2021/06/23 01:32:38;;;;;;;23.35;14.15;;;;;;;19.83;75.47;97048.58;1787580;80;25784;-86
2021/06/23 01:35:05;;;;;;;21.33;14.18;;;;;;;19.87;75.47;97049.67;1788451;80;25909;-85
2021/06/23 01:37:32;;;;;;;25.25;16.57;;;;;;;19.93;75.47;97054.02;1788419;79;25659;-87
2021/06/23 01:39:59;;;;;;;26.90;17.92;;;;;;;19.96;75.51;97056.20;1781306;80;27423;-87
2021/06/23 01:42:28;;;;;;;26.65;19.20;;;;;;;20.01;75.54;97065.23;1775797;80;25796;-86
2021/06/23 01:44:54;;;;;;;26.52;20.32;;;;;;;20.00;75.55;97060.86;1787267;80;25815;-86
2021/06/23 01:47:21;;;;;;;39.83;21.25;;;;;;;20.04;75.68;97065.23;1765796;80;26515;-86
2021/06/23 01:49:47;;;;;;;37.30;26.80;;;;;;;20.07;75.75;97067.39;1755510;80;25717;-85
2021/06/23 01:52:14;;;;;;;49.25;32.35;;;;;;;20.11;75.76;97069.84;1755524;80;27536;-88
2021/06/23 01:54:44;;;;;;;55.03;35.33;;;;;;;20.15;75.88;97070.94;1755524;80;25693;-85
2021/06/23 01:57:14;;;;;;;56.92;35.68;;;;;;;20.17;75.93;97076.94;1755466;80;25753;-87
2021/06/23 01:59:41;;;;;;;56.05;35.88;;;;;;;20.20;75.96;97077.75;1755733;80;26446;-86
2021/06/23 02:02:22;;;;;;;60.12;39.18;;;;;;;20.20;76.11;97080.48;1749487;80;26375;-87
2021/06/23 02:05:00;;;;;;;60.45;39.48;;;;;;;20.22;76.22;97079.66;1749300;81;27358;-86
2021/06/23 02:07:54;;;;;;;62.65;41.35;;;;;;;20.21;76.27;97079.94;1752057;80;25722;-87
2021/06/23 02:10:57;;;;;;;57.10;38.85;;;;;;;20.21;76.43;97075.83;1716424;81;25908;-89
2021/06/23 02:13:54;;;;;;;65.55;41.23;;;;;;;20.23;76.50;97085.97;1772574;79;25859;-85
2021/06/23 02:16:24;;;;;;;65.42;41.48;;;;;;;20.25;76.60;97087.88;1733800;80;25381;-86
2021/06/23 02:18:50;;;;;;;60.35;42.93;;;;;;;20.28;76.58;97088.15;1786926;80;28235;-87
2021/06/23 02:21:18;;;;;;;60.03;40.67;;;;;;;20.30;76.64;97087.30;1754169;80;26341;-88
2021/06/23 02:23:46;;;;;;;53.75;35.63;;;;;;;20.29;76.69;97077.43;1787005;80;25670;-86
2021/06/23 02:26:13;;;;;;;53.52;34.48;;;;;;;20.27;76.54;97072.80;1755860;80;25752;-86
2021/06/23 02:28:40;;;;;;;43.50;29.42;;;;;;;20.31;76.58;97073.86;1787402;80;25817;-86
2021/06/23 02:31:09;;;;;;;38.28;27.15;;;;;;;20.32;76.42;97075.50;1749275;80;27617;-87
2021/06/23 02:33:36;;;;;;;32.33;25.72;;;;;;;20.32;76.32;97079.61;1759605;80;26046;-87
2021/06/23 02:36:03;;;;;;;40.75;25.17;;;;;;;20.29;76.24;97080.17;1747597;80;25792;-87
2021/06/23 02:38:31;;;;;;;38.38;24.60;;;;;;;20.30;76.20;97070.84;1755081;81;26496;-86
2021/06/23 02:40:57;;;;;;;32.45;25.12;;;;;;;20.34;76.18;97071.11;1754578;80;25225;-86
2021/06/23 02:43:25;;;;;;;39.67;28.32;;;;;;;20.35;76.23;97077.72;1777412;78;27422;-85
2021/06/23 02:45:53;;;;;;;37.83;26.07;;;;;;;20.30;76.18;97072.22;1756270;81;25782;-86
2021/06/23 02:48:21;;;;;;;49.75;32.98;;;;;;;20.29;76.25;97080.17;1768290;81;25724;-86
2021/06/23 02:51:22;;;;;;;54.63;35.78;;;;;;;20.31;76.35;97082.08;1755705;81;25905;-87
2021/06/23 02:53:51;;;;;;;64.12;42.48;;;;;;;20.33;76.46;97089.48;1763554;81;25811;-85
2021/06/23 02:56:19;;;;;;;66.05;43.23;;;;;;;20.36;76.63;97090.88;1768233;81;27599;-85
2021/06/23 02:58:48;;;;;;;69.85;43.25;;;;;;;20.38;76.65;97092.24;1767980;81;26041;-85
2021/06/23 03:01:16;;;;;;;71.90;43.02;;;;;;;20.40;76.68;97096.90;1768068;80;25804;-84
2021/06/23 03:03:45;;;;;;;69.62;43.08;;;;;;;20.41;76.69;97103.98;1768022;81;25895;-84
2021/06/23 03:06:12;;;;;;;66.30;44.30;;;;;;;20.42;76.70;97102.07;1767958;80;25704;-85
2021/06/23 03:08:39;;;;;;;61.40;42.43;;;;;;;20.44;76.74;97106.73;1765918;81;28214;-85
2021/06/23 03:11:06;;;;;;;68.55;44.33;;;;;;;20.44;76.84;97099.88;1744301;81;25784;-85
2021/06/23 03:13:33;;;;;;;65.45;42.93;;;;;;;20.41;76.95;97099.88;1764258;81;26428;-85
2021/06/23 03:15:59;;;;;;;64.58;41.98;;;;;;;20.39;76.97;97107.59;1746695;81;25657;-85
2021/06/23 03:18:29;;;;;;;61.90;42.10;;;;;;;20.40;77.01;97103.75;1768237;81;25732;-84
2021/06/23 03:20:54;;;;;;;65.22;41.05;;;;;;;20.42;77.06;97107.00;1767993;81;28212;-84
2021/06/23 03:23:21;;;;;;;61.88;40.80;;;;;;;20.45;77.05;97111.93;1761599;81;25922;-84
2021/06/23 03:25:47;;;;;;;64.27;41.13;;;;;;;20.48;76.98;97107.27;1744086;81;25677;-85
2021/06/23 03:28:14;;;;;;;65.65;41.48;;;;;;;20.53;76.98;97106.98;1768190;81;25668;-85
2021/06/23 03:30:41;;;;;;;64.35;41.40;;;;;;;20.52;77.07;97120.42;1768266;81;25776;-85
2021/06/23 03:33:07;;;;;;;60.98;40.33;;;;;;;20.47;77.08;97123.44;1758076;81;27570;-85
2021/06/23 03:35:34;;;;;;;63.15;40.33;;;;;;;20.46;77.10;97124.54;1756998;81;25831;-85
2021/06/23 03:38:01;;;;;;;63.45;40.75;;;;;;;20.47;77.21;97119.87;1760888;81;25747;-85
2021/06/23 03:40:27;;;;;;;60.48;40.35;;;;;;;20.42;77.20;97113.86;1753931;81;25698;-85
2021/06/23 03:42:54;;;;;;;57.55;39.88;;;;;;;20.44;77.29;97114.41;1761469;81;25617;-85
2021/06/23 03:45:21;;;;;;;61.63;41.00;;;;;;;20.49;77.31;97119.87;1744793;81;28187;-84
2021/06/23 03:47:47;;;;;;;60.17;39.88;;;;;;;20.54;77.29;97125.86;1761201;81;25797;-84
2021/06/23 03:50:16;;;;;;;63.13;39.33;;;;;;;20.57;77.30;97131.34;1729423;82;25774;-85
2021/06/23 03:52:43;;;;;;;61.10;39.55;;;;;;;20.59;77.22;97127.77;1750381;81;25824;-84
2021/06/23 03:55:19;;;;;;;62.83;40.92;;;;;;;20.60;77.19;97123.38;1761534;80;25813;-84
2021/06/23 03:57:41;;;;;;;66.12;40.00;;;;;;;20.61;77.22;97125.02;1761168;80;28048;-85
2021/06/23 04:00:09;;;;;;;63.15;39.48;;;;;;;20.62;77.24;97131.33;1760141;80;25790;-85
2021/06/23 04:02:35;;;;;;;57.95;39.33;;;;;;;20.61;77.21;97135.17;1763529;80;25733;-85
2021/06/23 04:05:02;;;;;;;61.58;39.85;;;;;;;20.63;77.22;97128.86;1763361;80;25747;-85
2021/06/23 04:07:29;;;;;;;58.75;37.83;;;;;;;20.65;77.18;97132.14;1763486;80;26240;-85
2021/06/23 04:09:55;;;;;;;57.85;37.63;;;;;;;20.67;77.12;97132.66;1763308;81;27415;-85
2021/06/23 04:12:22;;;;;;;54.15;35.80;;;;;;;20.66;77.10;97141.98;1763270;80;25747;-84
2021/06/23 04:14:48;;;;;;;58.48;37.15;;;;;;;20.65;77.12;97143.11;1763559;80;25759;-84
2021/06/23 04:17:15;;;;;;;55.83;37.28;;;;;;;20.65;77.14;97147.23;1763208;80;26534;-84
2021/06/23 04:19:42;;;;;;;64.37;38.13;;;;;;;20.66;77.20;97151.03;1763479;80;25792;-84
2021/06/23 04:22:08;;;;;;;53.85;37.03;;;;;;;20.67;77.14;97151.85;1763417;81;27332;-84
2021/06/23 04:24:35;;;;;;;56.00;36.90;;;;;;;20.68;77.15;97147.46;1763394;81;25655;-85
2021/06/23 04:27:01;;;;;;;55.60;35.92;;;;;;;20.69;77.12;97155.14;1763411;80;25732;-85
2021/06/23 04:29:28;;;;;;;58.83;38.13;;;;;;;20.70;77.16;97162.27;1763444;80;25911;-85
2021/06/23 04:31:54;;;;;;;58.52;37.90;;;;;;;20.74;77.11;97171.58;1763424;80;25646;-85
2021/06/23 04:34:21;;;;;;;59.58;39.30;;;;;;;20.77;77.14;97171.03;1763246;80;27589;-84
2021/06/23 04:36:48;;;;;;;62.98;39.10;;;;;;;20.77;77.10;97166.33;1745650;81;25886;-84
2021/06/23 04:39:14;;;;;;;63.00;38.17;;;;;;;20.80;77.08;97171.81;1760028;80;25800;-85
2021/06/23 04:41:41;;;;;;;64.70;41.08;;;;;;;20.82;77.05;97168.23;1762993;80;26261;-85
2021/06/23 04:44:07;;;;;;;63.38;38.80;;;;;;;20.80;77.03;97169.89;1763945;81;25697;-85
2021/06/23 04:46:34;;;;;;;64.30;37.63;;;;;;;20.82;77.04;97171.80;1764754;81;28152;-85
2021/06/23 04:49:02;;;;;;;65.60;41.10;;;;;;;20.84;76.98;97169.60;1761699;81;25772;-84
2021/06/23 04:51:29;;;;;;;59.33;39.45;;;;;;;20.88;76.96;97180.84;1765094;81;25907;-85
2021/06/23 04:53:56;;;;;;;67.53;40.08;;;;;;;20.85;77.01;97170.42;1764225;81;26474;-84
2021/06/23 04:56:24;;;;;;;66.30;39.83;;;;;;;20.83;77.02;97172.63;1762078;81;25722;-84
2021/06/23 04:58:50;;;;;;;68.40;39.27;;;;;;;20.85;77.07;97170.42;1765010;81;28062;-85
2021/06/23 05:01:17;;;;;;;66.30;41.40;;;;;;;20.84;77.04;97168.78;1786879;79;25255;-84
2021/06/23 05:03:43;;;;;;;68.02;40.90;;;;;;;20.85;77.08;97165.77;1787240;79;25796;-85
2021/06/23 05:06:10;;;;;;;71.50;41.63;;;;;;;20.88;77.12;97164.38;1754470;81;25743;-85
2021/06/23 05:08:37;;;;;;;74.12;43.40;;;;;;;20.89;77.06;97163.25;1759236;81;25724;-85
2021/06/23 05:11:03;;;;;;;74.07;44.42;;;;;;;20.92;77.06;97162.69;1787179;79;27424;-83
2021/06/23 05:13:30;;;;;;;76.28;45.48;;;;;;;20.94;77.04;97167.34;1786960;79;25791;-84
2021/06/23 05:15:57;;;;;;;75.83;44.90;;;;;;;20.96;77.02;97165.14;1754417;80;25737;-84
2021/06/23 05:18:24;;;;;;;78.62;43.58;;;;;;;20.99;77.03;97166.51;1759459;81;26368;-84
2021/06/23 05:20:51;;;;;;;82.97;46.05;;;;;;;21.00;77.04;97163.48;1787277;79;25715;-85
2021/06/23 05:23:18;;;;;;;79.58;45.33;;;;;;;21.02;76.95;97169.48;1759560;81;26903;-84
2021/06/23 05:25:44;;;;;;;74.95;44.42;;;;;;;21.03;76.96;97172.50;1786947;79;25811;-85
2021/06/23 05:28:11;;;;;;;80.07;44.23;;;;;;;21.04;76.94;97170.03;1787271;80;25788;-85
2021/06/23 05:30:37;;;;;;;79.80;44.70;;;;;;;21.06;76.98;97176.61;1787148;80;25737;-85
2021/06/23 05:33:04;;;;;;;86.95;46.68;;;;;;;21.05;77.01;97172.22;1787144;80;25757;-85
2021/06/23 05:35:31;;;;;;;83.22;45.25;;;;;;;21.08;76.96;97168.36;1787306;79;27417;-85
2021/06/23 05:37:57;;;;;;;77.70;44.53;;;;;;;21.14;76.97;97171.33;1787148;80;25701;-85
2021/06/23 05:40:24;;;;;;;76.95;43.40;;;;;;;21.17;77.03;97172.69;1787204;80;25483;-84
2021/06/23 05:42:50;;;;;;;72.62;42.83;;;;;;;21.22;77.11;97171.33;1786954;79;25749;-85
2021/06/23 05:45:17;;;;;;;77.60;43.28;;;;;;;21.29;76.98;97177.86;1787751;79;25851;-84
2021/06/23 05:47:44;;;;;;;70.28;42.17;;;;;;;21.32;76.90;97175.92;1757125;81;28085;-85
2021/06/23 05:50:10;;;;;;;70.83;40.38;;;;;;;21.35;76.82;97179.47;1774812;80;25771;-84
2021/06/23 05:52:37;;;;;;;72.40;40.73;;;;;;;21.38;76.74;97187.12;1773624;79;25727;-84
2021/06/23 05:55:06;;;;;;;74.55;40.90;;;;;;;21.43;76.68;97193.95;1786394;79;25817;-84
2021/06/23 05:57:32;;;;;;;68.80;40.67;;;;;;;21.46;76.62;97200.26;1777349;79;25757;-86
2021/06/23 05:59:59;;;;;;;70.97;40.88;;;;;;;21.48;76.52;97196.67;1778876;79;27546;-84
2021/06/23 06:02:26;;;;;;;69.53;40.95;;;;;;;21.47;76.47;97203.27;1784428;79;25617;-85
2021/06/23 06:04:52;;;;;;;74.50;39.50;;;;;;;21.49;76.45;97211.47;1786755;79;25804;-85
2021/06/23 06:07:20;;;;;;;63.40;40.28;;;;;;;21.48;76.58;97217.27;1759483;80;55920;-86
2021/06/23 06:09:46;;;;;;;60.88;38.73;;;;;;;21.48;76.58;97217.27;1775424;79;25613;-85
2021/06/23 06:12:13;;;;;;;65.97;40.58;;;;;;;21.48;76.67;97231.00;1789656;79;28233;-85
2021/06/23 06:14:39;;;;;;;63.10;38.88;;;;;;;21.50;76.55;97228.77;1772242;79;25725;-85
2021/06/23 06:17:06;;;;;;;65.50;39.85;;;;;;;21.47;76.58;97229.36;1777025;79;25736;-85
2021/06/23 06:19:33;;;;;;;62.10;37.38;;;;;;;21.51;76.56;97233.16;1790070;80;25693;-84
2021/06/23 06:21:59;;;;;;;67.58;38.35;;;;;;;21.56;76.47;97239.45;1780078;79;25668;-85
2021/06/23 06:24:26;;;;;;;67.05;38.65;;;;;;;21.58;76.40;97243.28;1777469;79;27412;-85
2021/06/23 06:26:52;;;;;;;57.30;36.03;;;;;;;21.61;76.40;97244.09;1786260;79;25803;-86
2021/06/23 06:29:19;;;;;;;56.53;35.33;;;;;;;21.56;76.40;97249.61;1790100;80;25768;-86
2021/06/23 06:31:45;;;;;;;54.98;33.60;;;;;;;21.47;76.41;97253.52;1790020;80;26706;-86
2021/06/23 06:34:12;;;;;;;60.00;36.85;;;;;;;21.41;76.47;97252.45;1787333;79;25771;-85
2021/06/23 06:36:39;;;;;;;56.30;37.40;;;;;;;21.43;76.56;97252.98;1777316;79;27530;-85
2021/06/23 06:39:05;;;;;;;52.90;35.15;;;;;;;21.43;76.54;97255.19;1786230;79;25688;-84
2021/06/23 06:41:32;;;;;;;54.98;34.43;;;;;;;21.43;76.64;97255.19;1777451;79;25697;-85
2021/06/23 06:43:58;;;;;;;55.08;34.30;;;;;;;21.45;76.58;97248.86;1783548;78;26602;-87
2021/06/23 06:46:25;;;;;;;54.27;33.45;;;;;;;21.48;76.51;97252.97;1776325;78;25772;-86
2021/06/23 06:48:52;;;;;;;54.77;34.63;;;;;;;21.45;76.49;97246.67;1781693;78;27905;-86
2021/06/23 06:51:19;;;;;;;59.15;35.65;;;;;;;21.44;76.58;97246.40;1786591;79;25993;-83
2021/06/23 06:53:45;;;;;;;55.58;34.92;;;;;;;21.48;76.61;97245.55;1784446;79;25747;-84
2021/06/23 06:56:12;;;;;;;51.92;33.92;;;;;;;21.56;76.58;97255.10;1778442;80;26436;-85
2021/06/23 06:58:38;;;;;;;57.90;34.35;;;;;;;21.58;76.64;97251.52;1784349;78;25692;-85
2021/06/23 07:01:05;;;;;;;50.23;32.48;;;;;;;21.59;76.69;97259.21;1783791;79;27444;-86
2021/06/23 07:03:31;;;;;;;49.03;33.25;;;;;;;21.63;76.61;97261.08;1786848;78;26305;-85
2021/06/23 07:05:58;;;;;;;52.93;33.40;;;;;;;21.67;76.46;97263.53;1786957;80;25692;-83
2021/06/23 07:08:25;;;;;;;49.45;31.50;;;;;;;21.75;76.41;97264.29;1777167;78;25852;-84
2021/06/23 07:10:51;;;;;;;46.88;32.65;;;;;;;21.82;76.37;97270.30;1779107;79;25763;-86
2021/06/23 07:13:18;;;;;;;49.83;33.10;;;;;;;21.87;76.26;97259.25;1784644;79;27348;-84
2021/06/23 07:15:44;;;;;;;43.83;31.70;;;;;;;21.93;76.18;97259.48;1782876;80;25285;-86
2021/06/23 07:18:11;;;;;;;45.92;31.42;;;;;;;21.99;76.10;97264.95;1782026;80;25724;-84
2021/06/23 07:20:37;;;;;;;53.48;33.05;;;;;;;22.02;75.92;97260.27;1777858;79;26701;-85
2021/06/23 07:23:04;;;;;;;47.00;32.20;;;;;;;22.07;75.95;97258.86;1787005;79;25750;-86
2021/06/23 07:25:31;;;;;;;48.10;30.62;;;;;;;22.13;76.00;97263.19;1787127;80;27518;-85
2021/06/23 07:27:58;;;;;;;45.05;31.57;;;;;;;22.19;75.85;97268.92;1786879;80;25771;-85
2021/06/23 07:30:24;;;;;;;48.92;31.23;;;;;;;22.20;75.71;97269.19;1777187;80;25882;-83
2021/06/23 07:32:57;;;;;;;41.88;28.67;;;;;;;22.19;75.51;97268.92;1778724;80;25880;-84
2021/06/23 07:38:08;;;;;;;38.53;28.40;;;;;;;22.04;75.37;97255.30;1765643;78;28300;-85
2021/06/23 07:40:43;;;;;;;39.78;26.95;;;;;;;21.98;75.35;97246.83;1784839;79;26287;-84
2021/06/23 07:43:05;;;;;;;43.65;28.98;;;;;;;22.09;75.42;97273.14;1785596;80;25622;-85
2021/06/23 07:45:32;;;;;;;42.45;29.85;;;;;;;22.09;75.38;97275.34;1790032;80;26420;-84
2021/06/23 07:47:59;;;;;;;41.75;28.67;;;;;;;22.09;75.38;97275.34;1777646;79;25786;-86
2021/06/23 07:50:26;;;;;;;41.15;27.13;;;;;;;22.10;75.51;97274.75;1777436;79;27356;-86
2021/06/23 07:53:03;;;;;;;39.73;27.58;;;;;;;22.10;75.51;97274.75;1788801;79;25748;-85
2021/06/23 08:01:39;;;;;;;35.33;25.37;;;;;;;22.06;75.28;97279.20;1787879;80;25665;-85
2021/06/23 08:11:35;;;;;;;29.82;22.85;;;;;;;22.07;75.37;97279.47;1730982;80;26305;-87
2021/06/23 08:14:03;;;;;;;32.50;24.80;;;;;;;22.10;75.35;97285.20;1788640;80;25736;-85
2021/06/23 08:16:33;;;;;;;31.80;23.22;;;;;;;22.13;75.37;97283.80;1788292;80;27389;-85
2021/06/23 08:19:00;;;;;;;32.25;24.23;;;;;;;22.14;75.30;97289.57;1759470;80;25781;-85
2021/06/23 08:21:27;;;;;;;34.13;24.80;;;;;;;22.14;75.23;97288.20;1733677;81;25737;-83
2021/06/23 08:23:53;;;;;;;32.23;24.10;;;;;;;22.12;75.17;97293.98;1756348;81;25746;-86
2021/06/23 08:26:20;;;;;;;34.80;24.43;;;;;;;22.12;75.13;97302.78;1749524;81;25758;-85
2021/06/23 08:28:47;;;;;;;31.45;24.37;;;;;;;22.12;75.19;97301.41;1755719;81;27510;-84
2021/06/23 08:31:13;;;;;;;36.00;25.45;;;;;;;22.12;75.13;97301.41;1752829;81;25805;-86
2021/06/23 08:33:40;;;;;;;35.73;26.05;;;;;;;22.13;75.23;97304.42;1753044;81;25781;-83
2021/06/23 08:36:09;;;;;;;35.15;25.12;;;;;;;22.05;75.62;97307.24;1744169;81;26432;-84
2021/06/23 08:38:36;;;;;;;37.08;26.07;;;;;;;22.05;75.62;97307.24;1765330;80;25760;-87
2021/06/23 08:41:04;;;;;;;36.85;26.02;;;;;;;22.08;75.38;97310.80;1762728;81;28346;-85
2021/06/23 08:43:31;;;;;;;36.90;26.95;;;;;;;22.10;75.46;97318.73;1752679;80;25935;-86
2021/06/23 08:45:57;;;;;;;40.48;27.90;;;;;;;22.01;75.45;97305.34;1763499;81;25516;-84
2021/06/23 08:48:25;;;;;;;39.88;27.62;;;;;;;22.12;75.37;97320.09;1765289;81;25942;-84
2021/06/23 08:50:53;;;;;;;40.70;28.42;;;;;;;22.10;75.25;97318.73;1759635;81;25781;-83
2021/06/23 08:53:19;;;;;;;39.95;27.82;;;;;;;22.09;75.30;97323.99;1762970;81;28265;-85
2021/06/23 08:55:46;;;;;;;42.00;27.77;;;;;;;22.10;75.42;97329.73;1759076;80;25978;-84
2021/06/23 08:58:12;;;;;;;35.68;27.02;;;;;;;22.12;75.51;97323.39;1762473;81;25696;-85
2021/06/23 09:00:39;;;;;;;40.65;27.05;;;;;;;22.13;75.49;97326.41;1735061;81;25911;-86
2021/06/23 09:03:06;;;;;;;42.35;28.20;;;;;;;22.09;75.58;97326.19;1756674;81;25693;-86
2021/06/23 09:05:53;;;;;;;40.60;27.67;;;;;;;22.03;75.84;97332.81;1755602;80;27360;-85
2021/06/23 09:08:36;;;;;;;42.75;29.05;;;;;;;22.03;75.84;97332.81;1757254;81;25915;-86
2021/06/23 09:11:15;;;;;;;40.10;27.55;;;;;;;22.05;75.84;97333.36;1752764;81;25726;-85
2021/06/23 09:13:43;;;;;;;45.35;28.40;;;;;;;22.10;75.81;97337.97;1752981;81;26466;-85
2021/06/23 09:16:11;;;;;;;36.10;26.20;;;;;;;22.18;75.83;97336.00;1758905;81;25669;-85
2021/06/23 09:18:41;;;;;;;35.65;26.55;;;;;;;22.22;75.81;97328.80;1765277;81;27420;-84
2021/06/23 09:21:20;;;;;;;39.58;26.50;;;;;;;22.31;75.77;97328.47;1765176;81;25649;-84
2021/06/23 09:23:58;;;;;;;36.42;26.07;;;;;;;22.41;75.62;97328.93;1733964;82;25812;-85
2021/06/23 09:26:37;;;;;;;33.83;25.40;;;;;;;22.49;75.47;97331.05;1733902;82;25788;-85
2021/06/23 09:29:16;;;;;;;36.65;24.92;;;;;;;22.61;75.46;97325.98;1723483;81;25801;-85
2021/06/23 09:32:04;;;;;;;32.28;23.67;;;;;;;22.90;75.37;97325.43;1692276;84;27453;-85
2021/06/23 09:34:45;;;;;;;28.45;22.82;;;;;;;23.06;74.88;97332.15;1764491;81;25915;-87
2021/06/23 09:37:34;;;;;;;26.77;21.80;;;;;;;23.06;74.88;97332.15;1743744;81;25795;-86
2021/06/23 09:40:17;;;;;;;28.62;21.97;;;;;;;23.18;74.96;97329.80;1765246;81;26534;-86
2021/06/23 09:42:49;;;;;;;27.77;21.15;;;;;;;23.26;74.70;97327.77;1765484;81;25807;-86
2021/06/23 09:45:18;;;;;;;26.00;21.70;;;;;;;23.36;74.81;97329.00;1734463;81;27397;-85
2021/06/23 09:47:46;;;;;;;31.20;22.32;;;;;;;23.45;74.39;97327.78;1764848;81;25721;-86
2021/06/23 09:50:26;;;;;;;27.35;22.27;;;;;;;23.49;74.12;97332.97;1749794;80;26239;-85
2021/06/23 09:52:56;;;;;;;28.40;20.68;;;;;;;23.45;74.12;97296.10;1761775;80;25673;-84
2021/06/23 09:55:43;;;;;;;26.15;21.20;;;;;;;23.45;74.12;97296.10;1764382;81;25383;-86
2021/06/23 09:58:20;;;;;;;23.15;19.27;;;;;;;23.61;73.59;97323.74;1760573;80;28210;-83
2021/06/23 10:01:06;;;;;;;23.52;19.57;;;;;;;23.66;73.29;97323.68;1760624;81;25752;-87
2021/06/23 10:03:54;;;;;;;27.32;20.43;;;;;;;23.70;73.20;97322.77;1764410;81;25701;-87
2021/06/23 10:06:39;;;;;;;23.62;18.87;;;;;;;23.70;73.08;97327.46;1762413;81;26415;-88
2021/06/23 10:09:25;;;;;;;24.95;19.85;;;;;;;23.68;72.83;97326.94;1746005;81;25745;-85
2021/06/23 10:12:01;;;;;;;27.15;21.95;;;;;;;23.66;72.67;97322.30;1761888;81;27500;-86
2021/06/23 10:14:32;;;;;;;28.40;23.40;;;;;;;23.70;72.60;97323.33;1762847;81;25646;-87
2021/06/23 10:17:01;;;;;;;31.45;23.80;;;;;;;23.65;72.29;97321.48;1760707;81;25721;-86
2021/06/23 10:19:28;;;;;;;34.40;24.80;;;;;;;23.60;72.37;97320.72;1748053;80;26293;-87
2021/06/23 10:21:58;;;;;;;31.37;23.57;;;;;;;23.64;72.31;97319.02;1764966;81;25804;-86
2021/06/23 10:24:28;;;;;;;32.88;23.27;;;;;;;23.68;72.25;97320.05;1763391;80;27414;-86
2021/06/23 10:26:58;;;;;;;34.85;24.75;;;;;;;23.71;72.05;97324.97;1763609;81;25781;-87
2021/06/23 10:29:33;;;;;;;35.92;24.12;;;;;;;23.76;71.99;97326.28;1760839;80;25739;-88
2021/06/23 10:32:04;;;;;;;34.92;25.05;;;;;;;23.85;71.68;97318.98;1760769;81;26666;-84
2021/06/23 10:34:31;;;;;;;35.75;25.37;;;;;;;23.85;71.68;97318.98;1754542;80;25709;-86
2021/06/23 10:36:59;;;;;;;33.85;24.60;;;;;;;23.92;71.55;97321.34;1754292;81;27623;-86
2021/06/23 10:39:32;;;;;;;35.00;24.07;;;;;;;23.98;71.61;97318.78;1753982;81;25674;-86
2021/06/23 10:42:02;;;;;;;30.17;24.07;;;;;;;24.13;71.62;97313.59;1753480;81;25833;-85
2021/06/23 10:44:35;;;;;;;32.00;24.12;;;;;;;24.31;71.20;97312.19;1764936;81;25985;-86
2021/06/23 10:47:06;;;;;;;34.15;24.20;;;;;;;24.44;71.07;97309.22;1762300;81;25635;-85
2021/06/23 10:49:50;;;;;;;35.15;24.32;;;;;;;24.57;70.92;97306.23;1761631;81;27395;-86
2021/06/23 10:52:30;;;;;;;30.77;24.05;;;;;;;24.65;70.57;97305.52;1786899;80;26265;-87
2021/06/23 10:55:23;;;;;;;31.15;23.60;;;;;;;24.70;70.39;97298.53;1787122;79;25260;-87
2021/06/23 10:57:59;;;;;;;29.32;23.18;;;;;;;24.71;69.97;97303.76;1787089;80;25695;-86
2021/06/23 11:00:31;;;;;;;29.98;24.00;;;;;;;24.72;69.82;97308.72;1783342;80;25540;-87
2021/06/23 11:03:09;;;;;;;36.30;23.27;;;;;;;24.69;69.47;97304.61;1754077;81;27434;-87
2021/06/23 11:05:45;;;;;;;32.35;23.60;;;;;;;24.66;69.51;97305.22;1786302;80;25740;-87
2021/06/23 11:08:27;;;;;;;27.67;22.45;;;;;;;24.65;69.59;97311.86;1759481;81;25704;-86
2021/06/23 11:10:56;;;;;;;29.67;21.95;;;;;;;24.67;69.48;97306.86;1787112;79;26366;-89
2021/06/23 11:13:30;;;;;;;30.77;24.70;;;;;;;24.73;69.67;97308.41;1754647;81;25698;-88
2021/06/23 11:15:57;;;;;;;33.42;25.12;;;;;;;24.75;69.39;97306.14;1786830;80;27425;-87
2021/06/23 11:18:30;;;;;;;33.33;24.75;;;;;;;24.77;69.61;97305.28;1786965;79;26401;-87
2021/06/23 11:21:05;;;;;;;28.77;24.50;;;;;;;24.77;69.58;97308.05;1786880;80;25763;-86
2021/06/23 11:23:51;;;;;;;30.95;24.85;;;;;;;24.76;69.53;97307.78;1785506;80;25832;-86
2021/06/23 11:26:26;;;;;;;33.70;25.12;;;;;;;24.83;69.43;97309.34;1745780;81;25806;-86
2021/06/23 11:29:16;;;;;;;32.00;25.00;;;;;;;24.93;69.25;97309.17;1749321;81;27374;-86
2021/06/23 11:32:03;;;;;;;33.92;25.92;;;;;;;25.00;69.15;97308.19;1754581;80;25763;-86
2021/06/23 11:34:43;;;;;;;28.50;24.30;;;;;;;25.11;69.18;97287.55;1766099;80;25766;-87
2021/06/23 11:37:14;;;;;;;29.55;23.95;;;;;;;25.11;68.67;97295.27;1759477;81;26259;-89
2021/06/23 11:39:42;;;;;;;28.52;24.70;;;;;;;25.13;68.52;97296.32;1787247;79;25752;-86
2021/06/23 11:42:09;;;;;;;32.05;25.92;;;;;;;25.11;68.17;97294.45;1751158;81;27433;-87
2021/06/23 11:44:38;;;;;;;32.08;26.02;;;;;;;25.04;68.26;97292.09;1786898;80;26419;-88